createdAt,value
2018-05-25T00:00:07.824Z,0
2018-05-25T00:01:09.440Z,0
2018-05-25T00:02:11.054Z,0
2018-05-25T00:03:12.677Z,0
2018-05-25T00:04:14.290Z,0
2018-05-25T00:05:15.912Z,0
2018-05-25T00:06:17.525Z,0
2018-05-25T00:07:19.142Z,0
2018-05-25T00:08:20.758Z,0
2018-05-25T00:09:22.374Z,0
2018-05-25T00:10:23.987Z,0
2018-05-25T00:11:25.600Z,0
2018-05-25T00:12:27.222Z,0
2018-05-25T00:13:28.836Z,0
2018-05-25T00:14:30.457Z,0
2018-05-25T00:15:32.077Z,0
2018-05-25T00:16:33.693Z,0
2018-05-25T00:17:35.314Z,0
2018-05-25T00:18:36.928Z,0
2018-05-25T00:19:38.545Z,0
2018-05-25T00:20:40.167Z,0
2018-05-25T00:21:41.777Z,0
2018-05-25T00:22:43.400Z,0
2018-05-25T00:23:45.015Z,0
2018-05-25T00:24:46.644Z,0
2018-05-25T00:25:48.249Z,0
2018-05-25T00:26:49.874Z,0
2018-05-25T00:27:51.493Z,0
2018-05-25T00:28:53.103Z,0
2018-05-25T00:29:54.717Z,0
2018-05-25T00:30:56.338Z,0
2018-05-25T00:31:57.949Z,0
2018-05-25T00:32:59.567Z,0
2018-05-25T00:34:01.186Z,0
2018-05-25T00:35:02.802Z,0
2018-05-25T00:36:04.423Z,0
2018-05-25T00:37:06.034Z,0
2018-05-25T00:38:07.651Z,0
2018-05-25T00:39:09.270Z,0
2018-05-25T00:40:10.883Z,0
2018-05-25T00:41:12.503Z,0
2018-05-25T00:42:14.129Z,0
2018-05-25T00:43:15.736Z,0
2018-05-25T00:44:17.354Z,0
2018-05-25T00:45:18.967Z,0
2018-05-25T00:46:20.582Z,0
2018-05-25T00:47:22.205Z,0
2018-05-25T00:48:23.821Z,0
2018-05-25T00:49:25.442Z,0
2018-05-25T00:50:27.098Z,0
2018-05-25T00:51:28.673Z,0
2018-05-25T00:52:30.290Z,0
2018-05-25T00:53:31.907Z,0
2018-05-25T00:54:33.522Z,0
2018-05-25T00:55:35.145Z,0
2018-05-25T00:56:36.775Z,0
2018-05-25T00:57:38.379Z,0
2018-05-25T00:58:39.998Z,0
2018-05-25T00:59:41.610Z,0
2018-05-25T01:00:43.233Z,0
2018-05-25T01:01:44.847Z,0
2018-05-25T01:02:46.468Z,0
2018-05-25T01:03:48.087Z,0
2018-05-25T01:04:49.697Z,0
2018-05-25T01:05:51.328Z,0
2018-05-25T01:06:52.943Z,0
2018-05-25T01:07:54.558Z,0
2018-05-25T01:08:56.186Z,0
2018-05-25T01:09:57.796Z,0
2018-05-25T01:10:59.417Z,0
2018-05-25T01:12:01.036Z,0
2018-05-25T01:13:02.649Z,0
2018-05-25T01:14:04.263Z,0
2018-05-25T01:15:05.882Z,0
2018-05-25T01:16:07.498Z,0
2018-05-25T01:17:09.119Z,0
2018-05-25T01:18:10.735Z,0
2018-05-25T01:19:12.353Z,0
2018-05-25T01:20:13.965Z,0
2018-05-25T01:21:15.580Z,0
2018-05-25T01:22:17.202Z,0
2018-05-25T01:23:18.815Z,0
2018-05-25T01:24:20.437Z,0
2018-05-25T01:25:22.049Z,0
2018-05-25T01:26:23.670Z,0
2018-05-25T01:27:25.282Z,0
2018-05-25T01:28:26.904Z,0
2018-05-25T01:29:28.519Z,0
2018-05-25T01:30:30.140Z,0
2018-05-25T01:31:31.758Z,0
2018-05-25T01:32:33.383Z,0
2018-05-25T01:33:34.993Z,0
2018-05-25T01:34:36.615Z,0
2018-05-25T01:35:38.231Z,0
2018-05-25T01:36:39.851Z,0
2018-05-25T01:37:42.018Z,0
2018-05-25T01:38:43.639Z,0
2018-05-25T01:39:45.263Z,0
2018-05-25T01:40:46.876Z,0
2018-05-25T01:41:48.495Z,0
2018-05-25T01:42:50.111Z,0
2018-05-25T01:43:51.725Z,0
2018-05-25T01:44:53.343Z,0
2018-05-25T01:45:54.963Z,0
2018-05-25T01:46:56.582Z,0
2018-05-25T01:47:58.193Z,0
2018-05-25T01:48:59.813Z,0
2018-05-25T01:50:01.424Z,0
2018-05-25T01:51:03.045Z,0
2018-05-25T01:52:04.662Z,0
2018-05-25T01:53:06.284Z,0
2018-05-25T01:54:07.903Z,0
2018-05-25T01:55:09.514Z,0
2018-05-25T01:56:11.135Z,0
2018-05-25T01:57:12.749Z,0
2018-05-25T01:58:14.364Z,0
2018-05-25T01:59:15.983Z,0
2018-05-25T02:00:17.601Z,0
2018-05-25T02:01:19.226Z,0
2018-05-25T02:02:20.837Z,0
2018-05-25T02:03:22.451Z,0
2018-05-25T02:04:24.070Z,0
2018-05-25T02:05:25.686Z,0
2018-05-25T02:06:27.308Z,0
2018-05-25T02:07:28.921Z,0
2018-05-25T02:08:30.538Z,0
2018-05-25T02:09:32.155Z,0
2018-05-25T02:10:33.766Z,0
2018-05-25T02:11:35.388Z,0
2018-05-25T02:12:37.010Z,0
2018-05-25T02:13:38.620Z,0
2018-05-25T02:14:40.238Z,0
2018-05-25T02:15:41.855Z,0
2018-05-25T02:16:43.476Z,0
2018-05-25T02:17:45.088Z,0
2018-05-25T02:18:46.706Z,0
2018-05-25T02:19:48.319Z,0
2018-05-25T02:20:49.935Z,0
2018-05-25T02:21:51.558Z,0
2018-05-25T02:22:53.169Z,0
2018-05-25T02:23:54.792Z,0
2018-05-25T02:24:56.407Z,0
2018-05-25T02:25:58.022Z,0
2018-05-25T02:26:59.647Z,0
2018-05-25T02:28:01.260Z,0
2018-05-25T02:29:02.877Z,0
2018-05-25T02:30:04.500Z,0
2018-05-25T02:31:06.110Z,0
2018-05-25T02:32:07.725Z,0
2018-05-25T02:33:09.346Z,0
2018-05-25T02:34:10.959Z,0
2018-05-25T02:35:12.582Z,0
2018-05-25T02:36:14.199Z,0
2018-05-25T02:37:15.812Z,0
2018-05-25T02:38:17.428Z,0
2018-05-25T02:39:19.045Z,0
2018-05-25T02:40:20.655Z,0
2018-05-25T02:41:22.271Z,0
2018-05-25T02:42:23.892Z,0
2018-05-25T02:43:25.505Z,0
2018-05-25T02:44:27.127Z,0
2018-05-25T02:45:28.743Z,0
2018-05-25T02:46:30.354Z,0
2018-05-25T02:47:31.978Z,0
2018-05-25T02:48:33.599Z,0
2018-05-25T02:49:35.206Z,0
2018-05-25T02:50:36.820Z,0
2018-05-25T02:51:38.444Z,0
2018-05-25T02:52:40.057Z,0
2018-05-25T02:53:41.669Z,0
2018-05-25T02:54:43.292Z,0
2018-05-25T02:55:44.909Z,0
2018-05-25T02:56:46.522Z,0
2018-05-25T02:57:48.146Z,0
2018-05-25T02:58:49.760Z,0
2018-05-25T02:59:51.376Z,0
2018-05-25T03:00:52.994Z,0
2018-05-25T03:01:54.609Z,0
2018-05-25T03:02:56.230Z,0
2018-05-25T03:03:57.841Z,0
2018-05-25T03:04:59.466Z,0
2018-05-25T03:06:01.083Z,0
2018-05-25T03:07:02.702Z,0
2018-05-25T03:08:04.319Z,0
2018-05-25T03:09:05.934Z,0
2018-05-25T03:10:07.556Z,0
2018-05-25T03:11:09.170Z,0
2018-05-25T03:12:10.793Z,0
2018-05-25T03:13:12.412Z,0
2018-05-25T03:14:14.027Z,0
2018-05-25T03:15:15.648Z,0
2018-05-25T03:16:17.265Z,5
2018-05-25T03:17:18.881Z,5
2018-05-25T03:18:21.086Z,5
2018-05-25T03:19:23.296Z,5
2018-05-25T03:20:24.925Z,5
2018-05-25T03:21:26.534Z,5
2018-05-25T03:22:28.791Z,5
2018-05-25T03:23:30.414Z,11
2018-05-25T03:24:32.036Z,11
2018-05-25T03:25:33.655Z,11
2018-05-25T03:26:35.276Z,11
2018-05-25T03:27:36.895Z,11
2018-05-25T03:28:38.518Z,11
2018-05-25T03:29:40.133Z,16
2018-05-25T03:30:41.755Z,16
2018-05-25T03:31:43.380Z,16
2018-05-25T03:32:44.989Z,16
2018-05-25T03:33:46.617Z,16
2018-05-25T03:34:48.242Z,22
2018-05-25T03:35:49.855Z,22
2018-05-25T03:36:51.478Z,22
2018-05-25T03:37:53.097Z,22
2018-05-25T03:38:54.719Z,22
2018-05-25T03:39:56.341Z,28
2018-05-25T03:40:57.968Z,28
2018-05-25T03:41:59.594Z,28
2018-05-25T03:43:01.217Z,28
2018-05-25T03:44:02.827Z,28
2018-05-25T03:45:04.451Z,28
2018-05-25T03:46:06.064Z,33
2018-05-25T03:47:07.686Z,33
2018-05-25T03:48:09.309Z,33
2018-05-25T03:49:10.927Z,33
2018-05-25T03:50:12.550Z,39
2018-05-25T03:51:14.171Z,39
2018-05-25T03:52:15.787Z,39
2018-05-25T03:53:17.413Z,39
2018-05-25T03:54:19.032Z,39
2018-05-25T03:55:20.654Z,45
2018-05-25T03:56:22.270Z,45
2018-05-25T03:57:23.892Z,45
2018-05-25T03:58:25.514Z,45
2018-05-25T03:59:27.130Z,45
2018-05-25T04:00:28.754Z,39
2018-05-25T04:01:30.369Z,39
2018-05-25T04:02:31.994Z,39
2018-05-25T04:03:33.613Z,39
2018-05-25T04:04:35.235Z,39
2018-05-25T04:05:36.858Z,39
2018-05-25T04:06:38.472Z,45
2018-05-25T04:07:40.094Z,45
2018-05-25T04:08:41.712Z,45
2018-05-25T04:09:43.338Z,50
2018-05-25T04:10:44.958Z,50
2018-05-25T04:11:46.579Z,56
2018-05-25T04:12:48.202Z,61
2018-05-25T04:13:49.827Z,61
2018-05-25T04:14:51.451Z,67
2018-05-25T04:15:53.070Z,73
2018-05-25T04:16:54.698Z,73
2018-05-25T04:17:56.320Z,78
2018-05-25T04:18:57.934Z,78
2018-05-25T04:19:59.558Z,78
2018-05-25T04:21:01.173Z,84
2018-05-25T04:22:02.790Z,84
2018-05-25T04:23:04.423Z,84
2018-05-25T04:24:06.036Z,84
2018-05-25T04:25:07.664Z,84
2018-05-25T04:26:09.281Z,84
2018-05-25T04:27:10.906Z,84
2018-05-25T04:28:12.528Z,78
2018-05-25T04:29:14.147Z,78
2018-05-25T04:30:15.775Z,78
2018-05-25T04:31:17.386Z,78
2018-05-25T04:32:19.012Z,78
2018-05-25T04:33:20.631Z,78
2018-05-25T04:34:22.251Z,78
2018-05-25T04:35:23.869Z,78
2018-05-25T04:36:25.484Z,78
2018-05-25T04:37:27.109Z,78
2018-05-25T04:38:28.730Z,78
2018-05-25T04:39:30.355Z,78
2018-05-25T04:40:31.983Z,84
2018-05-25T04:41:33.592Z,84
2018-05-25T04:42:35.214Z,84
2018-05-25T04:43:36.831Z,90
2018-05-25T04:44:38.454Z,90
2018-05-25T04:45:40.073Z,90
2018-05-25T04:46:41.695Z,90
2018-05-25T04:47:43.316Z,90
2018-05-25T04:48:44.935Z,90
2018-05-25T04:49:46.559Z,95
2018-05-25T04:50:48.175Z,95
2018-05-25T04:51:49.800Z,101
2018-05-25T04:52:51.426Z,112
2018-05-25T04:53:53.046Z,123
2018-05-25T04:54:54.670Z,129
2018-05-25T04:55:56.291Z,140
2018-05-25T04:56:57.910Z,140
2018-05-25T04:57:59.538Z,151
2018-05-25T04:59:01.172Z,163
2018-05-25T05:00:02.787Z,168
2018-05-25T05:01:04.415Z,174
2018-05-25T05:02:06.033Z,180
2018-05-25T05:03:07.656Z,191
2018-05-25T05:04:09.279Z,196
2018-05-25T05:05:10.897Z,208
2018-05-25T05:06:12.525Z,213
2018-05-25T05:07:14.149Z,219
2018-05-25T05:08:15.771Z,230
2018-05-25T05:09:17.395Z,236
2018-05-25T05:10:19.016Z,241
2018-05-25T05:11:20.639Z,247
2018-05-25T05:12:22.269Z,258
2018-05-25T05:13:23.882Z,264
2018-05-25T05:14:25.508Z,275
2018-05-25T05:15:27.133Z,286
2018-05-25T05:16:28.754Z,298
2018-05-25T05:17:30.376Z,309
2018-05-25T05:18:31.995Z,326
2018-05-25T05:19:33.627Z,348
2018-05-25T05:20:35.249Z,360
2018-05-25T05:21:36.869Z,376
2018-05-25T05:22:38.495Z,399
2018-05-25T05:23:40.119Z,416
2018-05-25T05:24:41.736Z,433
2018-05-25T05:25:43.362Z,472
2018-05-25T05:26:44.983Z,489
2018-05-25T05:27:46.601Z,506
2018-05-25T05:28:48.232Z,517
2018-05-25T05:29:49.851Z,534
2018-05-25T05:30:51.479Z,540
2018-05-25T05:31:53.099Z,540
2018-05-25T05:32:54.725Z,540
2018-05-25T05:33:56.354Z,534
2018-05-25T05:34:57.971Z,523
2018-05-25T05:35:59.603Z,511
2018-05-25T05:37:01.231Z,506
2018-05-25T05:38:02.845Z,489
2018-05-25T05:39:04.471Z,489
2018-05-25T05:40:06.097Z,483
2018-05-25T05:41:07.748Z,495
2018-05-25T05:42:09.372Z,511
2018-05-25T05:43:10.994Z,495
2018-05-25T05:44:12.670Z,511
2018-05-25T05:45:14.289Z,517
2018-05-25T05:46:16.021Z,528
2018-05-25T05:47:17.652Z,545
2018-05-25T05:48:19.272Z,545
2018-05-25T05:49:21.001Z,551
2018-05-25T05:50:22.635Z,556
2018-05-25T05:51:24.256Z,551
2018-05-25T05:52:25.873Z,551
2018-05-25T05:53:27.498Z,551
2018-05-25T05:54:29.119Z,545
2018-05-25T05:55:30.741Z,545
2018-05-25T05:56:32.370Z,551
2018-05-25T05:57:33.986Z,568
2018-05-25T05:58:35.615Z,579
2018-05-25T05:59:37.231Z,590
2018-05-25T06:00:38.849Z,601
2018-05-25T06:01:40.475Z,601
2018-05-25T06:02:42.121Z,607
2018-05-25T06:03:43.735Z,607
2018-05-25T06:04:45.358Z,607
2018-05-25T06:05:46.983Z,601
2018-05-25T06:06:48.603Z,613
2018-05-25T06:07:50.234Z,630
2018-05-25T06:08:51.855Z,663
2018-05-25T06:09:53.482Z,753
2018-05-25T06:10:55.110Z,956
2018-05-25T06:11:56.736Z,1170
2018-05-25T06:12:58.363Z,1260
2018-05-25T06:13:59.982Z,1434
2018-05-25T06:15:01.609Z,1333
2018-05-25T06:16:03.235Z,1366
2018-05-25T06:17:04.856Z,1411
2018-05-25T06:18:06.536Z,1468
2018-05-25T06:19:08.163Z,1597
2018-05-25T06:20:09.787Z,1552
2018-05-25T06:21:11.416Z,1631
2018-05-25T06:22:13.041Z,1591
2018-05-25T06:23:14.677Z,1563
2018-05-25T06:24:16.301Z,1631
2018-05-25T06:25:17.969Z,1800
2018-05-25T06:26:19.561Z,1878
2018-05-25T06:27:21.191Z,1693
2018-05-25T06:28:22.813Z,1738
2018-05-25T06:29:24.446Z,1749
2018-05-25T06:30:26.070Z,1918
2018-05-25T06:31:27.695Z,1805
2018-05-25T06:32:29.326Z,1755
2018-05-25T06:33:30.955Z,1743
2018-05-25T06:34:32.585Z,1850
2018-05-25T06:35:34.214Z,1771
2018-05-25T06:36:35.837Z,1777
2018-05-25T06:37:37.463Z,1980
2018-05-25T06:38:39.093Z,2278
2018-05-25T06:39:40.719Z,2289
2018-05-25T06:40:42.350Z,2160
2018-05-25T06:41:43.985Z,2244
2018-05-25T06:42:45.612Z,2373
2018-05-25T06:43:47.236Z,2289
2018-05-25T06:44:48.874Z,2109
2018-05-25T06:45:50.502Z,2238
2018-05-25T06:46:52.126Z,2401
2018-05-25T06:47:53.764Z,2323
2018-05-25T06:48:55.390Z,2210
2018-05-25T06:49:57.017Z,2328
2018-05-25T06:50:58.649Z,2379
2018-05-25T06:52:00.274Z,2233
2018-05-25T06:53:01.912Z,2109
2018-05-25T06:54:03.541Z,2160
2018-05-25T06:55:05.182Z,2244
2018-05-25T06:56:06.814Z,2418
2018-05-25T06:57:08.461Z,2553
2018-05-25T06:58:10.072Z,2677
2018-05-25T06:59:11.702Z,2761
2018-05-25T07:00:13.337Z,2655
2018-05-25T07:01:14.966Z,2610
2018-05-25T07:02:16.598Z,2835
2018-05-25T07:03:18.239Z,3245
2018-05-25T07:04:19.864Z,3380
2018-05-25T07:05:21.502Z,3369
2018-05-25T07:06:23.137Z,3307
2018-05-25T07:07:24.766Z,3397
2018-05-25T07:08:26.406Z,3183
2018-05-25T07:09:28.043Z,2711
2018-05-25T07:10:29.672Z,1980
2018-05-25T07:11:31.302Z,1856
2018-05-25T07:12:32.939Z,1996
2018-05-25T07:13:34.796Z,2064
2018-05-25T07:14:36.435Z,2036
2018-05-25T07:15:38.071Z,2030
2018-05-25T07:16:39.710Z,1918
2018-05-25T07:17:41.340Z,1946
2018-05-25T07:18:42.972Z,1423
2018-05-25T07:19:44.608Z,1980
2018-05-25T07:20:46.244Z,1968
2018-05-25T07:21:47.876Z,1968
2018-05-25T07:22:49.516Z,2013
2018-05-25T07:23:51.147Z,2064
2018-05-25T07:24:52.783Z,2047
2018-05-25T07:25:54.421Z,2030
2018-05-25T07:26:56.060Z,2030
2018-05-25T07:27:57.689Z,2025
2018-05-25T07:28:59.329Z,2019
2018-05-25T07:30:00.985Z,2030
2018-05-25T07:31:02.642Z,2030
2018-05-25T07:32:04.281Z,2047
2018-05-25T07:33:05.917Z,2075
2018-05-25T07:34:07.548Z,2075
2018-05-25T07:35:09.186Z,2075
2018-05-25T07:36:10.818Z,2081
2018-05-25T07:37:12.454Z,2081
2018-05-25T07:38:14.097Z,2075
2018-05-25T07:39:15.741Z,2092
2018-05-25T07:40:17.372Z,2115
2018-05-25T07:41:19.014Z,2120
2018-05-25T07:42:20.665Z,2154
2018-05-25T07:43:22.301Z,2193
2018-05-25T07:44:23.955Z,2205
2018-05-25T07:45:25.594Z,2205
2018-05-25T07:46:27.235Z,2210
2018-05-25T07:47:28.872Z,2238
2018-05-25T07:48:30.501Z,2250
2018-05-25T07:49:32.143Z,2295
2018-05-25T07:50:33.780Z,2334
2018-05-25T07:51:35.412Z,2340
2018-05-25T07:52:37.048Z,2407
2018-05-25T07:53:38.691Z,2385
2018-05-25T07:54:40.327Z,2396
2018-05-25T07:55:41.965Z,2396
2018-05-25T07:56:43.597Z,2340
2018-05-25T07:57:45.238Z,2255
2018-05-25T07:58:46.869Z,2306
2018-05-25T07:59:48.517Z,2435
2018-05-25T08:00:50.169Z,2491
2018-05-25T08:01:51.805Z,2520
2018-05-25T08:02:53.443Z,2373
2018-05-25T08:03:55.070Z,2497
2018-05-25T08:04:56.711Z,2227
2018-05-25T08:05:58.345Z,2058
2018-05-25T08:06:59.984Z,2025
2018-05-25T08:08:01.630Z,1726
2018-05-25T08:09:03.265Z,1665
2018-05-25T08:10:04.901Z,2441
2018-05-25T08:11:06.541Z,2615
2018-05-25T08:12:08.176Z,2615
2018-05-25T08:13:09.816Z,2683
2018-05-25T08:14:11.457Z,2739
2018-05-25T08:15:13.091Z,2739
2018-05-25T08:16:14.723Z,2806
2018-05-25T08:17:16.364Z,2683
2018-05-25T08:18:18.002Z,2750
2018-05-25T08:19:19.634Z,2508
2018-05-25T08:20:21.276Z,2570
2018-05-25T08:21:22.911Z,2508
2018-05-25T08:22:24.553Z,2086
2018-05-25T08:23:26.196Z,2086
2018-05-25T08:24:27.825Z,2233
2018-05-25T08:25:29.472Z,2317
2018-05-25T08:26:31.112Z,2047
2018-05-25T08:27:32.738Z,2025
2018-05-25T08:28:34.377Z,2086
2018-05-25T08:29:36.016Z,2711
2018-05-25T08:30:37.646Z,2255
2018-05-25T08:31:39.287Z,2334
2018-05-25T08:32:40.924Z,3161
2018-05-25T08:33:42.561Z,2576
2018-05-25T08:34:44.199Z,2868
2018-05-25T08:35:45.833Z,2671
2018-05-25T08:36:47.470Z,2857
2018-05-25T08:37:49.113Z,3172
2018-05-25T08:38:50.751Z,2390
2018-05-25T08:39:52.385Z,2863
2018-05-25T08:40:54.023Z,2491
2018-05-25T08:41:55.656Z,2452
2018-05-25T08:42:57.297Z,2666
2018-05-25T08:43:58.931Z,1991
2018-05-25T08:45:00.566Z,1901
2018-05-25T08:46:02.209Z,2019
2018-05-25T08:47:03.835Z,1743
2018-05-25T08:48:05.474Z,1648
2018-05-25T08:49:07.110Z,2002
2018-05-25T08:50:08.746Z,1513
2018-05-25T08:51:10.388Z,1507
2018-05-25T08:52:12.017Z,1636
2018-05-25T08:53:13.654Z,1451
2018-05-25T08:54:15.289Z,1327
2018-05-25T08:55:16.925Z,1260
2018-05-25T08:56:18.559Z,1147
2018-05-25T08:57:20.198Z,1018
2018-05-25T08:58:21.831Z,905
2018-05-25T08:59:23.467Z,815
2018-05-25T09:00:25.094Z,781
2018-05-25T09:01:26.723Z,776
2018-05-25T09:02:28.359Z,725
2018-05-25T09:03:29.987Z,652
2018-05-25T09:04:31.623Z,585
2018-05-25T09:05:33.260Z,528
2018-05-25T09:06:34.883Z,478
2018-05-25T09:07:36.517Z,433
2018-05-25T09:08:38.141Z,405
2018-05-25T09:09:39.774Z,399
2018-05-25T09:10:41.405Z,393
2018-05-25T09:11:43.033Z,405
2018-05-25T09:12:44.667Z,405
2018-05-25T09:13:46.295Z,405
2018-05-25T09:14:47.920Z,388
2018-05-25T09:15:49.552Z,365
2018-05-25T09:16:51.177Z,354
2018-05-25T09:17:52.806Z,348
2018-05-25T09:18:54.443Z,315
2018-05-25T09:19:56.063Z,275
2018-05-25T09:20:57.692Z,241
2018-05-25T09:21:59.373Z,213
2018-05-25T09:23:00.945Z,191
2018-05-25T09:24:02.571Z,180
2018-05-25T09:25:04.240Z,168
2018-05-25T09:26:05.829Z,163
2018-05-25T09:27:07.453Z,163
2018-05-25T09:28:09.077Z,163
2018-05-25T09:29:10.705Z,163
2018-05-25T09:30:12.335Z,163
2018-05-25T09:31:13.956Z,168
2018-05-25T09:32:15.583Z,168
2018-05-25T09:33:17.213Z,174
2018-05-25T09:34:18.835Z,174
2018-05-25T09:35:20.463Z,174
2018-05-25T09:36:22.101Z,180
2018-05-25T09:37:23.711Z,180
2018-05-25T09:38:25.367Z,191
2018-05-25T09:39:26.988Z,202
2018-05-25T09:40:28.621Z,213
2018-05-25T09:41:30.248Z,225
2018-05-25T09:42:31.864Z,236
2018-05-25T09:43:33.493Z,264
2018-05-25T09:44:35.112Z,286
2018-05-25T09:45:36.742Z,315
2018-05-25T09:46:38.364Z,343
2018-05-25T09:47:39.995Z,365
2018-05-25T09:48:41.622Z,388
2018-05-25T09:49:43.244Z,427
2018-05-25T09:50:44.870Z,472
2018-05-25T09:51:46.493Z,511
2018-05-25T09:52:48.117Z,556
2018-05-25T09:53:49.744Z,585
2018-05-25T09:54:51.371Z,630
2018-05-25T09:55:52.995Z,686
2018-05-25T09:56:54.623Z,759
2018-05-25T09:57:56.242Z,826
2018-05-25T09:58:57.870Z,888
2018-05-25T09:59:59.495Z,945
2018-05-25T10:01:01.126Z,1001
2018-05-25T10:02:02.756Z,1051
2018-05-25T10:03:04.380Z,1096
2018-05-25T10:04:06.007Z,1141
2018-05-25T10:05:07.629Z,1175
2018-05-25T10:06:09.256Z,1209
2018-05-25T10:07:10.884Z,1243
2018-05-25T10:08:12.508Z,1276
2018-05-25T10:09:14.139Z,1310
2018-05-25T10:10:15.772Z,1361
2018-05-25T10:11:17.397Z,1428
2018-05-25T10:12:19.017Z,1507
2018-05-25T10:13:20.649Z,1586
2018-05-25T10:14:22.272Z,1681
2018-05-25T10:15:23.901Z,1771
2018-05-25T10:16:25.527Z,1856
2018-05-25T10:17:27.168Z,1963
2018-05-25T10:18:28.789Z,2092
2018-05-25T10:19:30.417Z,2323
2018-05-25T10:20:32.040Z,2908
2018-05-25T10:21:33.674Z,4522
2018-05-25T10:22:35.307Z,5855
2018-05-25T10:23:36.925Z,4916
2018-05-25T10:24:38.558Z,5293
2018-05-25T10:25:40.182Z,2598
2018-05-25T10:26:41.817Z,2801
2018-05-25T10:27:43.448Z,3673
2018-05-25T10:28:45.101Z,2936
2018-05-25T10:29:46.710Z,3915
2018-05-25T10:30:48.688Z,3847
2018-05-25T10:31:50.304Z,3088
2018-05-25T10:32:51.938Z,3060
2018-05-25T10:33:53.566Z,2801
2018-05-25T10:34:55.195Z,2553
2018-05-25T10:35:56.831Z,2362
2018-05-25T10:36:58.463Z,2553
2018-05-25T10:38:00.095Z,3116
2018-05-25T10:39:01.733Z,2728
2018-05-25T10:40:03.365Z,3003
2018-05-25T10:41:05.037Z,3369
2018-05-25T10:42:06.625Z,2739
2018-05-25T10:43:08.262Z,2508
2018-05-25T10:44:09.897Z,2407
2018-05-25T10:45:11.532Z,2812
2018-05-25T10:46:13.439Z,3189
2018-05-25T10:47:15.072Z,5855
2018-05-25T10:48:16.697Z,6446
2018-05-25T10:49:18.335Z,6193
2018-05-25T10:50:19.972Z,6198
2018-05-25T10:51:21.609Z,5895
2018-05-25T10:52:23.249Z,5985
2018-05-25T10:53:24.881Z,5563
2018-05-25T10:54:26.520Z,2930
2018-05-25T10:55:28.151Z,2846
2018-05-25T10:56:29.793Z,3313
2018-05-25T10:57:31.425Z,4860
2018-05-25T10:58:33.066Z,5703
2018-05-25T10:59:34.699Z,6322
2018-05-25T11:00:36.335Z,6311
2018-05-25T11:01:38.058Z,6142
2018-05-25T11:02:39.693Z,6333
2018-05-25T11:03:41.341Z,6316
2018-05-25T11:04:42.972Z,5962
2018-05-25T11:05:44.608Z,5968
2018-05-25T11:06:46.260Z,3628
2018-05-25T11:07:47.888Z,3622
2018-05-25T11:08:49.524Z,5703
2018-05-25T11:09:51.167Z,5551
2018-05-25T11:10:52.800Z,6333
2018-05-25T11:11:54.442Z,5872
2018-05-25T11:12:56.084Z,6592
2018-05-25T11:13:57.722Z,5422
2018-05-25T11:14:59.396Z,1895
2018-05-25T11:16:01.001Z,1777
2018-05-25T11:17:02.646Z,1771
2018-05-25T11:18:04.280Z,1755
2018-05-25T11:19:05.923Z,1884
2018-05-25T11:20:07.558Z,1783
2018-05-25T11:21:09.195Z,1665
2018-05-25T11:22:10.840Z,1636
2018-05-25T11:23:12.470Z,2075
2018-05-25T11:24:14.111Z,3358
2018-05-25T11:25:15.751Z,3290
2018-05-25T11:26:17.386Z,2261
2018-05-25T11:27:19.026Z,3982
2018-05-25T11:28:20.662Z,2621
2018-05-25T11:29:22.298Z,3481
2018-05-25T11:30:23.937Z,1693
2018-05-25T11:31:25.569Z,1636
2018-05-25T11:32:27.205Z,1575
2018-05-25T11:33:28.842Z,1636
2018-05-25T11:34:30.480Z,1715
2018-05-25T11:35:32.119Z,2671
2018-05-25T11:36:33.753Z,1586
2018-05-25T11:37:35.395Z,1513
2018-05-25T11:38:37.024Z,1434
2018-05-25T11:39:38.666Z,1462
2018-05-25T11:40:40.299Z,1456
2018-05-25T11:41:41.937Z,1473
2018-05-25T11:42:43.569Z,1445
2018-05-25T11:43:45.203Z,1327
2018-05-25T11:44:46.835Z,1192
2018-05-25T11:45:48.472Z,1074
2018-05-25T11:46:50.101Z,1006
2018-05-25T11:47:51.732Z,984
2018-05-25T11:48:53.370Z,995
2018-05-25T11:49:55.011Z,1029
2018-05-25T11:50:56.640Z,1074
2018-05-25T11:51:58.273Z,1136
2018-05-25T11:52:59.967Z,1215
2018-05-25T11:54:01.545Z,1282
2018-05-25T11:55:03.184Z,1321
2018-05-25T11:56:04.814Z,1383
2018-05-25T11:57:06.450Z,1456
2018-05-25T11:58:08.084Z,1535
2018-05-25T11:59:09.787Z,1659
2018-05-25T12:00:11.445Z,1839
2018-05-25T12:01:13.070Z,2351
2018-05-25T12:02:14.708Z,3566
2018-05-25T12:03:16.338Z,4269
2018-05-25T12:04:18.005Z,3813
2018-05-25T12:05:19.629Z,4376
2018-05-25T12:06:21.260Z,3262
2018-05-25T12:07:22.897Z,2407
2018-05-25T12:08:24.532Z,3234
2018-05-25T12:09:26.174Z,2182
2018-05-25T12:10:27.813Z,2143
2018-05-25T12:11:29.486Z,2255
2018-05-25T12:12:31.081Z,2098
2018-05-25T12:13:32.718Z,2790
2018-05-25T12:14:34.346Z,2126
2018-05-25T12:15:35.984Z,1693
2018-05-25T12:16:37.611Z,1524
2018-05-25T12:17:39.263Z,1451
2018-05-25T12:18:40.897Z,1468
2018-05-25T12:19:42.528Z,1546
2018-05-25T12:20:44.160Z,1580
2018-05-25T12:21:45.789Z,1518
2018-05-25T12:22:47.447Z,1513
2018-05-25T12:23:49.074Z,1530
2018-05-25T12:24:50.707Z,1575
2018-05-25T12:25:52.343Z,1636
2018-05-25T12:26:53.973Z,1687
2018-05-25T12:27:55.648Z,1687
2018-05-25T12:28:57.262Z,1715
2018-05-25T12:29:58.882Z,1816
2018-05-25T12:31:00.517Z,1794
2018-05-25T12:32:02.160Z,2340
2018-05-25T12:33:03.793Z,2536
2018-05-25T12:34:05.449Z,1771
2018-05-25T12:35:07.056Z,1603
2018-05-25T12:36:08.689Z,1575
2018-05-25T12:37:10.316Z,1575
2018-05-25T12:38:11.949Z,1541
2018-05-25T12:39:13.595Z,1507
2018-05-25T12:40:15.242Z,1468
2018-05-25T12:41:16.874Z,1395
2018-05-25T12:42:18.501Z,1361
2018-05-25T12:43:20.141Z,1265
2018-05-25T12:44:21.760Z,1473
2018-05-25T12:45:23.397Z,1608
2018-05-25T12:46:25.100Z,1771
2018-05-25T12:47:26.714Z,1845
2018-05-25T12:48:28.353Z,1816
2018-05-25T12:49:29.978Z,1715
2018-05-25T12:50:31.605Z,1586
2018-05-25T12:51:33.230Z,1608
2018-05-25T12:52:34.866Z,1653
2018-05-25T12:53:36.498Z,1541
2018-05-25T12:54:38.144Z,1445
2018-05-25T12:55:39.835Z,1423
2018-05-25T12:56:41.486Z,1462
2018-05-25T12:57:43.116Z,1541
2018-05-25T12:58:44.740Z,1665
2018-05-25T12:59:46.373Z,1878
2018-05-25T13:00:48.001Z,2548
2018-05-25T13:01:49.650Z,3358
2018-05-25T13:02:51.309Z,4207
2018-05-25T13:03:52.945Z,4730
2018-05-25T13:04:54.576Z,4539
2018-05-25T13:05:56.202Z,2587
2018-05-25T13:06:57.839Z,3476
2018-05-25T13:07:59.470Z,3740
2018-05-25T13:09:01.105Z,2103
2018-05-25T13:10:02.734Z,4381
2018-05-25T13:11:04.370Z,2941
2018-05-25T13:12:05.998Z,4770
2018-05-25T13:13:07.630Z,4426
2018-05-25T13:14:09.258Z,2137
2018-05-25T13:15:10.892Z,3110
2018-05-25T13:16:12.530Z,1501
2018-05-25T13:17:14.162Z,1316
2018-05-25T13:18:15.794Z,1338
2018-05-25T13:19:17.427Z,1372
2018-05-25T13:20:19.053Z,1389
2018-05-25T13:21:20.691Z,1395
2018-05-25T13:22:22.328Z,1378
2018-05-25T13:23:23.962Z,1451
2018-05-25T13:24:25.593Z,1575
2018-05-25T13:25:27.223Z,1344
2018-05-25T13:26:28.859Z,1237
2018-05-25T13:27:30.483Z,1170
2018-05-25T13:28:32.114Z,1085
2018-05-25T13:29:33.747Z,995
2018-05-25T13:30:35.383Z,933
2018-05-25T13:31:37.016Z,900
2018-05-25T13:32:38.643Z,843
2018-05-25T13:33:40.279Z,843
2018-05-25T13:34:41.900Z,866
2018-05-25T13:35:43.566Z,866
2018-05-25T13:36:45.912Z,866
2018-05-25T13:37:47.546Z,883
2018-05-25T13:38:49.662Z,900
2018-05-25T13:39:51.289Z,916
2018-05-25T13:40:52.925Z,950
2018-05-25T13:41:54.550Z,990
2018-05-25T13:42:56.183Z,1035
2018-05-25T13:43:57.816Z,1080
2018-05-25T13:44:59.450Z,1136
2018-05-25T13:46:01.084Z,1215
2018-05-25T13:47:02.716Z,1614
2018-05-25T13:48:04.342Z,1406
2018-05-25T13:49:05.974Z,1282
2018-05-25T13:50:07.606Z,1231
2018-05-25T13:51:09.237Z,1175
2018-05-25T13:52:10.869Z,1192
2018-05-25T13:53:12.502Z,1237
2018-05-25T13:54:14.135Z,1237
2018-05-25T13:55:15.773Z,1203
2018-05-25T13:56:17.398Z,1203
2018-05-25T13:57:19.024Z,1226
2018-05-25T13:58:20.661Z,1260
2018-05-25T13:59:22.294Z,1321
2018-05-25T14:00:23.924Z,1333
2018-05-25T14:01:25.557Z,1316
2018-05-25T14:02:27.185Z,1355
2018-05-25T14:03:28.815Z,1603
2018-05-25T14:04:30.448Z,1546
2018-05-25T14:05:32.079Z,1546
2018-05-25T14:06:33.710Z,1670
2018-05-25T14:07:35.344Z,2013
2018-05-25T14:08:36.975Z,2238
2018-05-25T14:09:38.600Z,2115
2018-05-25T14:10:40.233Z,1766
2018-05-25T14:11:41.867Z,1957